sensor_id;sensor_type;location;lat;lon;timestamp;temperature;humidity
52869;DHT22;39100;53.480;6.158;2023-01-15T00:01:46;6.80;99.90
52869;DHT22;39100;53.480;6.158;2023-01-15T00:04:12;6.80;99.90
52869;DHT22;39100;53.480;6.158;2023-01-15T00:06:40;6.80;99.90
52869;DHT22;39100;53.480;6.158;2023-01-15T00:09:07;6.80;99.90
52869;DHT22;39100;53.480;6.158;2023-01-15T00:11:33;6.70;99.90
52869;DHT22;39100;53.480;6.158;2023-01-15T00:13:59;6.70;99.90
52869;DHT22;39100;53.480;6.158;2023-01-15T00:16:26;7.10;99.90
52869;DHT22;39100;53.480;6.158;2023-01-15T00:18:54;6.70;99.90
52869;DHT22;39100;53.480;6.158;2023-01-15T00:21:21;6.70;99.90
52869;DHT22;39100;53.480;6.158;2023-01-15T00:23:48;6.70;99.90
52869;DHT22;39100;53.480;6.158;2023-01-15T00:26:33;6.70;99.90
52869;DHT22;39100;53.480;6.158;2023-01-15T00:29:17;6.60;99.90
52869;DHT22;39100;53.480;6.158;2023-01-15T00:31:50;6.60;99.90
52869;DHT22;39100;53.480;6.158;2023-01-15T00:34:16;6.60;99.90
52869;DHT22;39100;53.480;6.158;2023-01-15T00:36:42;6.60;99.90
52869;DHT22;39100;53.480;6.158;2023-01-15T00:39:07;6.60;99.90
52869;DHT22;39100;53.480;6.158;2023-01-15T00:41:33;6.70;99.90
52869;DHT22;39100;53.480;6.158;2023-01-15T00:43:58;6.70;99.90
52869;DHT22;39100;53.480;6.158;2023-01-15T00:46:24;6.70;99.90
52869;DHT22;39100;53.480;6.158;2023-01-15T00:48:49;6.60;99.90
52869;DHT22;39100;53.480;6.158;2023-01-15T00:51:15;6.60;99.90
52869;DHT22;39100;53.480;6.158;2023-01-15T00:53:41;6.60;99.90
52869;DHT22;39100;53.480;6.158;2023-01-15T00:56:06;6.60;99.90
52869;DHT22;39100;53.480;6.158;2023-01-15T00:58:32;6.60;99.90
52869;DHT22;39100;53.480;6.158;2023-01-15T01:00:58;6.60;99.90
52869;DHT22;39100;53.480;6.158;2023-01-15T01:03:26;6.60;99.90
52869;DHT22;39100;53.480;6.158;2023-01-15T01:05:51;6.60;99.90
52869;DHT22;39100;53.480;6.158;2023-01-15T01:08:17;6.60;99.90
52869;DHT22;39100;53.480;6.158;2023-01-15T01:10:43;6.60;99.90
52869;DHT22;39100;53.480;6.158;2023-01-15T01:13:09;6.60;99.90
52869;DHT22;39100;53.480;6.158;2023-01-15T01:15:36;6.60;99.90
52869;DHT22;39100;53.480;6.158;2023-01-15T01:18:03;6.60;99.90
52869;DHT22;39100;53.480;6.158;2023-01-15T01:20:29;6.60;99.90
52869;DHT22;39100;53.480;6.158;2023-01-15T01:22:55;6.60;99.90
52869;DHT22;39100;53.480;6.158;2023-01-15T01:25:21;6.60;99.90
52869;DHT22;39100;53.480;6.158;2023-01-15T01:27:47;6.60;99.90
52869;DHT22;39100;53.480;6.158;2023-01-15T01:30:13;6.50;99.90
52869;DHT22;39100;53.480;6.158;2023-01-15T01:32:39;6.50;99.90
52869;DHT22;39100;53.480;6.158;2023-01-15T01:35:08;6.50;99.90
52869;DHT22;39100;53.480;6.158;2023-01-15T01:37:33;6.50;99.90
52869;DHT22;39100;53.480;6.158;2023-01-15T01:39:59;6.50;99.90
52869;DHT22;39100;53.480;6.158;2023-01-15T01:42:24;6.40;99.90
52869;DHT22;39100;53.480;6.158;2023-01-15T01:47:25;6.40;99.90
52869;DHT22;39100;53.480;6.158;2023-01-15T01:49:56;6.40;99.90
52869;DHT22;39100;53.480;6.158;2023-01-15T01:52:26;6.40;99.90
52869;DHT22;39100;53.480;6.158;2023-01-15T01:54:55;6.40;99.90
52869;DHT22;39100;53.480;6.158;2023-01-15T01:57:21;6.40;99.90
52869;DHT22;39100;53.480;6.158;2023-01-15T01:59:48;6.40;99.90
52869;DHT22;39100;53.480;6.158;2023-01-15T02:02:14;6.40;99.90
52869;DHT22;39100;53.480;6.158;2023-01-15T02:04:41;6.50;99.90
52869;DHT22;39100;53.480;6.158;2023-01-15T02:07:07;6.40;99.90
52869;DHT22;39100;53.480;6.158;2023-01-15T02:09:33;6.50;99.90
52869;DHT22;39100;53.480;6.158;2023-01-15T02:12:18;6.50;99.90
52869;DHT22;39100;53.480;6.158;2023-01-15T02:17:34;6.40;99.90
52869;DHT22;39100;53.480;6.158;2023-01-15T02:25:52;6.40;99.90
52869;DHT22;39100;53.480;6.158;2023-01-15T02:28:33;6.40;99.90
52869;DHT22;39100;53.480;6.158;2023-01-15T02:31:08;6.50;99.90
52869;DHT22;39100;53.480;6.158;2023-01-15T02:33:43;6.50;99.90
52869;DHT22;39100;53.480;6.158;2023-01-15T02:36:14;6.40;99.90
52869;DHT22;39100;53.480;6.158;2023-01-15T02:38:44;6.40;99.90
52869;DHT22;39100;53.480;6.158;2023-01-15T02:41:11;6.40;99.90
52869;DHT22;39100;53.480;6.158;2023-01-15T02:43:45;6.40;99.90
52869;DHT22;39100;53.480;6.158;2023-01-15T02:46:14;6.40;99.90
52869;DHT22;39100;53.480;6.158;2023-01-15T02:48:42;6.50;99.90
52869;DHT22;39100;53.480;6.158;2023-01-15T02:51:19;6.50;99.90
52869;DHT22;39100;53.480;6.158;2023-01-15T02:53:47;6.40;99.90
52869;DHT22;39100;53.480;6.158;2023-01-15T02:56:19;6.40;99.90
52869;DHT22;39100;53.480;6.158;2023-01-15T02:58:47;6.40;99.90
52869;DHT22;39100;53.480;6.158;2023-01-15T03:01:17;6.40;99.90
52869;DHT22;39100;53.480;6.158;2023-01-15T03:06:31;6.40;99.90
52869;DHT22;39100;53.480;6.158;2023-01-15T03:08:59;6.40;99.90
52869;DHT22;39100;53.480;6.158;2023-01-15T03:11:26;6.40;99.90
52869;DHT22;39100;53.480;6.158;2023-01-15T03:14:03;6.40;99.90
52869;DHT22;39100;53.480;6.158;2023-01-15T03:16:52;6.40;99.90
52869;DHT22;39100;53.480;6.158;2023-01-15T03:27:21;6.30;99.90
52869;DHT22;39100;53.480;6.158;2023-01-15T03:29:51;6.40;99.90
52869;DHT22;39100;53.480;6.158;2023-01-15T03:32:18;6.30;99.90
52869;DHT22;39100;53.480;6.158;2023-01-15T03:34:53;6.30;99.90
52869;DHT22;39100;53.480;6.158;2023-01-15T03:37:21;6.30;99.90
52869;DHT22;39100;53.480;6.158;2023-01-15T03:39:48;6.20;99.90
52869;DHT22;39100;53.480;6.158;2023-01-15T03:47:44;6.20;99.90
52869;DHT22;39100;53.480;6.158;2023-01-15T03:50:24;6.20;99.90
52869;DHT22;39100;53.480;6.158;2023-01-15T03:53:20;6.20;99.90
52869;DHT22;39100;53.480;6.158;2023-01-15T03:55:54;6.20;99.90
52869;DHT22;39100;53.480;6.158;2023-01-15T03:58:37;6.10;99.90
52869;DHT22;39100;53.480;6.158;2023-01-15T04:01:06;6.10;99.90
52869;DHT22;39100;53.480;6.158;2023-01-15T04:03:35;6.10;99.90
52869;DHT22;39100;53.480;6.158;2023-01-15T04:06:02;6.10;99.90
52869;DHT22;39100;53.480;6.158;2023-01-15T04:08:31;6.10;99.90
52869;DHT22;39100;53.480;6.158;2023-01-15T04:10:59;6.00;99.90
52869;DHT22;39100;53.480;6.158;2023-01-15T04:13:25;6.00;99.90
52869;DHT22;39100;53.480;6.158;2023-01-15T04:15:51;6.00;99.90
52869;DHT22;39100;53.480;6.158;2023-01-15T04:18:17;5.90;99.90
52869;DHT22;39100;53.480;6.158;2023-01-15T04:20:44;5.90;99.90
52869;DHT22;39100;53.480;6.158;2023-01-15T04:23:09;5.90;99.90
52869;DHT22;39100;53.480;6.158;2023-01-15T04:25:36;5.80;99.90
52869;DHT22;39100;53.480;6.158;2023-01-15T04:28:01;5.90;99.90
52869;DHT22;39100;53.480;6.158;2023-01-15T04:30:27;5.80;99.90
52869;DHT22;39100;53.480;6.158;2023-01-15T04:32:53;5.80;99.90
52869;DHT22;39100;53.480;6.158;2023-01-15T04:35:19;5.80;99.90
52869;DHT22;39100;53.480;6.158;2023-01-15T04:37:45;5.80;99.90
52869;DHT22;39100;53.480;6.158;2023-01-15T04:40:11;5.80;99.90
52869;DHT22;39100;53.480;6.158;2023-01-15T04:43:00;5.80;99.90
52869;DHT22;39100;53.480;6.158;2023-01-15T04:45:44;5.80;99.90
52869;DHT22;39100;53.480;6.158;2023-01-15T04:48:10;5.80;99.90
52869;DHT22;39100;53.480;6.158;2023-01-15T04:50:37;5.70;99.90
52869;DHT22;39100;53.480;6.158;2023-01-15T04:53:03;5.70;99.90
52869;DHT22;39100;53.480;6.158;2023-01-15T04:55:29;5.70;99.90
52869;DHT22;39100;53.480;6.158;2023-01-15T04:57:55;5.70;99.90
52869;DHT22;39100;53.480;6.158;2023-01-15T05:00:20;5.60;99.90
52869;DHT22;39100;53.480;6.158;2023-01-15T05:02:47;5.70;99.90
52869;DHT22;39100;53.480;6.158;2023-01-15T05:05:13;5.60;99.90
52869;DHT22;39100;53.480;6.158;2023-01-15T05:07:38;5.60;99.90
52869;DHT22;39100;53.480;6.158;2023-01-15T05:10:05;5.60;99.90
52869;DHT22;39100;53.480;6.158;2023-01-15T05:12:30;5.60;99.90
52869;DHT22;39100;53.480;6.158;2023-01-15T05:14:56;5.60;99.90
52869;DHT22;39100;53.480;6.158;2023-01-15T05:17:21;5.60;99.90
52869;DHT22;39100;53.480;6.158;2023-01-15T05:19:47;5.70;99.90
52869;DHT22;39100;53.480;6.158;2023-01-15T05:22:12;5.60;99.90
52869;DHT22;39100;53.480;6.158;2023-01-15T05:24:38;5.60;99.90
52869;DHT22;39100;53.480;6.158;2023-01-15T05:27:03;5.60;99.90
52869;DHT22;39100;53.480;6.158;2023-01-15T05:29:30;5.60;99.90
52869;DHT22;39100;53.480;6.158;2023-01-15T05:31:56;5.60;99.90
52869;DHT22;39100;53.480;6.158;2023-01-15T05:34:21;5.60;99.90
52869;DHT22;39100;53.480;6.158;2023-01-15T05:36:47;5.50;99.90
52869;DHT22;39100;53.480;6.158;2023-01-15T05:39:12;5.50;99.90
52869;DHT22;39100;53.480;6.158;2023-01-15T05:41:38;5.50;99.90
52869;DHT22;39100;53.480;6.158;2023-01-15T05:44:28;5.40;99.90
52869;DHT22;39100;53.480;6.158;2023-01-15T05:46:56;5.40;99.90
52869;DHT22;39100;53.480;6.158;2023-01-15T05:49:24;5.40;99.90
52869;DHT22;39100;53.480;6.158;2023-01-15T05:51:51;5.40;99.90
52869;DHT22;39100;53.480;6.158;2023-01-15T05:54:25;5.40;99.90
52869;DHT22;39100;53.480;6.158;2023-01-15T05:56:52;5.30;99.90
52869;DHT22;39100;53.480;6.158;2023-01-15T05:59:20;5.30;99.90
52869;DHT22;39100;53.480;6.158;2023-01-15T06:01:45;5.30;99.90
52869;DHT22;39100;53.480;6.158;2023-01-15T06:04:11;5.30;99.90
52869;DHT22;39100;53.480;6.158;2023-01-15T06:06:42;5.30;99.90
52869;DHT22;39100;53.480;6.158;2023-01-15T06:09:08;5.30;99.90
52869;DHT22;39100;53.480;6.158;2023-01-15T06:11:33;5.40;99.90
52869;DHT22;39100;53.480;6.158;2023-01-15T06:13:59;5.30;99.90
52869;DHT22;39100;53.480;6.158;2023-01-15T06:16:25;5.40;99.90
52869;DHT22;39100;53.480;6.158;2023-01-15T06:18:50;5.30;99.90
52869;DHT22;39100;53.480;6.158;2023-01-15T06:21:17;5.30;99.90
52869;DHT22;39100;53.480;6.158;2023-01-15T06:23:43;5.40;99.90
52869;DHT22;39100;53.480;6.158;2023-01-15T06:26:14;5.40;99.90
52869;DHT22;39100;53.480;6.158;2023-01-15T06:28:40;5.40;99.90
52869;DHT22;39100;53.480;6.158;2023-01-15T06:31:08;6.00;99.90
52869;DHT22;39100;53.480;6.158;2023-01-15T06:33:34;5.30;99.90
52869;DHT22;39100;53.480;6.158;2023-01-15T06:36:10;5.40;99.90
52869;DHT22;39100;53.480;6.158;2023-01-15T06:38:36;5.40;99.90
52869;DHT22;39100;53.480;6.158;2023-01-15T06:41:04;5.30;99.90
52869;DHT22;39100;53.480;6.158;2023-01-15T06:43:49;5.30;99.90
52869;DHT22;39100;53.480;6.158;2023-01-15T06:46:33;5.30;99.90
52869;DHT22;39100;53.480;6.158;2023-01-15T06:49:18;5.30;99.90
52869;DHT22;39100;53.480;6.158;2023-01-15T06:51:43;5.30;99.90
52869;DHT22;39100;53.480;6.158;2023-01-15T06:54:09;5.30;99.90
52869;DHT22;39100;53.480;6.158;2023-01-15T06:56:34;5.30;99.90
52869;DHT22;39100;53.480;6.158;2023-01-15T06:59:00;5.30;99.90
52869;DHT22;39100;53.480;6.158;2023-01-15T07:01:25;5.30;99.90
52869;DHT22;39100;53.480;6.158;2023-01-15T07:03:55;5.20;99.90
52869;DHT22;39100;53.480;6.158;2023-01-15T07:06:21;6.00;99.90
52869;DHT22;39100;53.480;6.158;2023-01-15T07:08:46;5.30;99.90
52869;DHT22;39100;53.480;6.158;2023-01-15T07:11:12;5.30;99.90
52869;DHT22;39100;53.480;6.158;2023-01-15T07:13:39;5.30;99.90
52869;DHT22;39100;53.480;6.158;2023-01-15T07:16:04;5.30;99.90
52869;DHT22;39100;53.480;6.158;2023-01-15T07:18:32;5.40;99.90
52869;DHT22;39100;53.480;6.158;2023-01-15T07:20:58;5.40;99.90
52869;DHT22;39100;53.480;6.158;2023-01-15T07:23:24;5.30;99.90
52869;DHT22;39100;53.480;6.158;2023-01-15T07:25:54;5.40;99.90
52869;DHT22;39100;53.480;6.158;2023-01-15T07:28:21;5.40;99.90
52869;DHT22;39100;53.480;6.158;2023-01-15T07:30:47;5.40;99.90
52869;DHT22;39100;53.480;6.158;2023-01-15T07:33:13;5.40;99.90
52869;DHT22;39100;53.480;6.158;2023-01-15T07:35:39;5.40;99.90
52869;DHT22;39100;53.480;6.158;2023-01-15T07:38:04;5.40;99.90
52869;DHT22;39100;53.480;6.158;2023-01-15T07:40:30;5.40;99.90
52869;DHT22;39100;53.480;6.158;2023-01-15T07:42:55;5.40;99.90
52869;DHT22;39100;53.480;6.158;2023-01-15T07:45:41;5.30;99.90
52869;DHT22;39100;53.480;6.158;2023-01-15T07:48:26;5.30;99.90
52869;DHT22;39100;53.480;6.158;2023-01-15T07:51:10;5.30;99.90
52869;DHT22;39100;53.480;6.158;2023-01-15T07:53:36;5.40;99.90
52869;DHT22;39100;53.480;6.158;2023-01-15T07:56:02;5.40;99.90
52869;DHT22;39100;53.480;6.158;2023-01-15T07:58:27;5.40;99.90
52869;DHT22;39100;53.480;6.158;2023-01-15T08:00:53;5.40;99.90
52869;DHT22;39100;53.480;6.158;2023-01-15T08:03:19;5.40;99.90
52869;DHT22;39100;53.480;6.158;2023-01-15T08:05:44;5.50;99.90
52869;DHT22;39100;53.480;6.158;2023-01-15T08:08:16;5.50;99.90
52869;DHT22;39100;53.480;6.158;2023-01-15T08:10:42;5.50;99.90
52869;DHT22;39100;53.480;6.158;2023-01-15T08:13:26;5.60;99.90
52869;DHT22;39100;53.480;6.158;2023-01-15T08:16:10;5.60;99.90
52869;DHT22;39100;53.480;6.158;2023-01-15T08:18:37;5.40;99.90
52869;DHT22;39100;53.480;6.158;2023-01-15T08:21:02;5.00;99.90
52869;DHT22;39100;53.480;6.158;2023-01-15T08:23:28;4.80;99.90
52869;DHT22;39100;53.480;6.158;2023-01-15T08:25:53;4.70;99.90
52869;DHT22;39100;53.480;6.158;2023-01-15T08:28:20;4.70;99.90
52869;DHT22;39100;53.480;6.158;2023-01-15T08:30:46;4.80;99.90
52869;DHT22;39100;53.480;6.158;2023-01-15T08:33:11;4.80;99.90
52869;DHT22;39100;53.480;6.158;2023-01-15T08:35:37;4.90;99.90
52869;DHT22;39100;53.480;6.158;2023-01-15T08:38:04;4.90;99.90
52869;DHT22;39100;53.480;6.158;2023-01-15T08:40:30;4.90;99.90
52869;DHT22;39100;53.480;6.158;2023-01-15T08:42:56;5.00;99.90
52869;DHT22;39100;53.480;6.158;2023-01-15T08:45:21;5.00;99.90
52869;DHT22;39100;53.480;6.158;2023-01-15T08:47:47;5.10;99.90
52869;DHT22;39100;53.480;6.158;2023-01-15T08:50:12;5.10;99.90
52869;DHT22;39100;53.480;6.158;2023-01-15T08:52:38;5.10;99.90
52869;DHT22;39100;53.480;6.158;2023-01-15T08:55:04;5.10;99.90
52869;DHT22;39100;53.480;6.158;2023-01-15T08:57:30;5.10;99.90
52869;DHT22;39100;53.480;6.158;2023-01-15T08:59:56;5.10;99.90
52869;DHT22;39100;53.480;6.158;2023-01-15T09:02:21;5.10;99.90
52869;DHT22;39100;53.480;6.158;2023-01-15T09:04:47;5.20;99.90
52869;DHT22;39100;53.480;6.158;2023-01-15T09:07:12;5.30;99.90
52869;DHT22;39100;53.480;6.158;2023-01-15T09:09:38;5.50;99.90
52869;DHT22;39100;53.480;6.158;2023-01-15T09:12:03;5.60;99.90
52869;DHT22;39100;53.480;6.158;2023-01-15T09:14:29;5.60;99.90
52869;DHT22;39100;53.480;6.158;2023-01-15T09:16:55;5.70;99.90
52869;DHT22;39100;53.480;6.158;2023-01-15T09:19:22;5.70;99.90
52869;DHT22;39100;53.480;6.158;2023-01-15T09:21:47;5.70;99.90
52869;DHT22;39100;53.480;6.158;2023-01-15T09:24:13;5.70;99.90
52869;DHT22;39100;53.480;6.158;2023-01-15T09:26:39;5.80;99.90
52869;DHT22;39100;53.480;6.158;2023-01-15T09:29:06;5.90;99.90
52869;DHT22;39100;53.480;6.158;2023-01-15T09:31:32;6.00;99.90
52869;DHT22;39100;53.480;6.158;2023-01-15T09:33:58;6.00;99.90
52869;DHT22;39100;53.480;6.158;2023-01-15T09:36:29;6.10;99.90
52869;DHT22;39100;53.480;6.158;2023-01-15T09:38:56;6.30;99.90
52869;DHT22;39100;53.480;6.158;2023-01-15T09:41:23;6.50;99.90
52869;DHT22;39100;53.480;6.158;2023-01-15T09:47:08;6.20;99.90
52869;DHT22;39100;53.480;6.158;2023-01-15T09:52:49;6.00;99.90
52869;DHT22;39100;53.480;6.158;2023-01-15T09:55:29;6.00;99.90
52869;DHT22;39100;53.480;6.158;2023-01-15T09:57:58;6.10;99.90
52869;DHT22;39100;53.480;6.158;2023-01-15T10:00:27;6.20;99.90
52869;DHT22;39100;53.480;6.158;2023-01-15T10:03:12;6.20;99.90
52869;DHT22;39100;53.480;6.158;2023-01-15T10:06:03;6.30;99.90
52869;DHT22;39100;53.480;6.158;2023-01-15T10:08:35;6.40;99.90
52869;DHT22;39100;53.480;6.158;2023-01-15T10:11:50;6.40;99.90
52869;DHT22;39100;53.480;6.158;2023-01-15T10:14:11;6.60;99.90
52869;DHT22;39100;53.480;6.158;2023-01-15T10:16:39;6.80;99.90
52869;DHT22;39100;53.480;6.158;2023-01-15T10:19:05;6.90;99.90
52869;DHT22;39100;53.480;6.158;2023-01-15T10:26:43;6.50;99.90
52869;DHT22;39100;53.480;6.158;2023-01-15T10:29:29;6.40;99.90
52869;DHT22;39100;53.480;6.158;2023-01-15T10:32:22;6.10;99.90
52869;DHT22;39100;53.480;6.158;2023-01-15T10:43:19;6.50;99.90
52869;DHT22;39100;53.480;6.158;2023-01-15T10:45:59;6.70;99.90
52869;DHT22;39100;53.480;6.158;2023-01-15T10:48:38;6.90;99.90
52869;DHT22;39100;53.480;6.158;2023-01-15T10:51:15;7.00;99.90
52869;DHT22;39100;53.480;6.158;2023-01-15T10:53:48;7.00;99.90
52869;DHT22;39100;53.480;6.158;2023-01-15T10:59:15;6.70;99.90
52869;DHT22;39100;53.480;6.158;2023-01-15T11:01:43;6.40;99.90
52869;DHT22;39100;53.480;6.158;2023-01-15T11:04:10;6.30;99.90
52869;DHT22;39100;53.480;6.158;2023-01-15T11:06:39;6.10;99.90
52869;DHT22;39100;53.480;6.158;2023-01-15T11:09:05;6.00;99.90
52869;DHT22;39100;53.480;6.158;2023-01-15T11:11:44;6.00;99.90
52869;DHT22;39100;53.480;6.158;2023-01-15T11:17:24;5.90;99.90
52869;DHT22;39100;53.480;6.158;2023-01-15T11:20:29;5.90;99.90
52869;DHT22;39100;53.480;6.158;2023-01-15T11:22:57;5.90;99.90
52869;DHT22;39100;53.480;6.158;2023-01-15T11:25:31;5.80;99.90
52869;DHT22;39100;53.480;6.158;2023-01-15T11:27:59;5.80;99.90
52869;DHT22;39100;53.480;6.158;2023-01-15T11:30:31;5.90;99.90
52869;DHT22;39100;53.480;6.158;2023-01-15T11:33:00;5.80;99.90
52869;DHT22;39100;53.480;6.158;2023-01-15T11:35:28;5.80;99.90
52869;DHT22;39100;53.480;6.158;2023-01-15T11:38:22;5.80;99.90
52869;DHT22;39100;53.480;6.158;2023-01-15T11:40:53;5.80;99.90
52869;DHT22;39100;53.480;6.158;2023-01-15T11:43:21;5.80;99.90
52869;DHT22;39100;53.480;6.158;2023-01-15T11:46:28;5.70;99.90
52869;DHT22;39100;53.480;6.158;2023-01-15T11:49:18;5.70;99.90
52869;DHT22;39100;53.480;6.158;2023-01-15T11:52:05;5.70;99.90
52869;DHT22;39100;53.480;6.158;2023-01-15T11:54:32;5.60;99.90
52869;DHT22;39100;53.480;6.158;2023-01-15T11:57:01;5.60;99.90
52869;DHT22;39100;53.480;6.158;2023-01-15T11:59:27;5.60;99.90
52869;DHT22;39100;53.480;6.158;2023-01-15T12:01:56;5.60;99.90
52869;DHT22;39100;53.480;6.158;2023-01-15T12:04:45;5.60;99.90
52869;DHT22;39100;53.480;6.158;2023-01-15T12:07:13;5.60;99.90
52869;DHT22;39100;53.480;6.158;2023-01-15T12:15:08;5.70;99.90
52869;DHT22;39100;53.480;6.158;2023-01-15T12:18:02;5.70;99.90
52869;DHT22;39100;53.480;6.158;2023-01-15T12:26:12;5.40;99.90
52869;DHT22;39100;53.480;6.158;2023-01-15T12:28:59;5.40;99.90
52869;DHT22;39100;53.480;6.158;2023-01-15T12:31:36;5.60;99.90
52869;DHT22;39100;53.480;6.158;2023-01-15T12:34:11;5.70;99.90
52869;DHT22;39100;53.480;6.158;2023-01-15T12:36:44;5.70;99.90
52869;DHT22;39100;53.480;6.158;2023-01-15T12:39:37;5.60;99.90
52869;DHT22;39100;53.480;6.158;2023-01-15T12:42:09;5.70;99.90
52869;DHT22;39100;53.480;6.158;2023-01-15T12:45:08;5.70;99.90
52869;DHT22;39100;53.480;6.158;2023-01-15T12:48:11;5.70;99.90
52869;DHT22;39100;53.480;6.158;2023-01-15T12:50:41;5.80;99.90
52869;DHT22;39100;53.480;6.158;2023-01-15T12:58:45;5.80;99.90
52869;DHT22;39100;53.480;6.158;2023-01-15T13:01:32;5.80;99.90
52869;DHT22;39100;53.480;6.158;2023-01-15T13:04:24;5.80;99.90
52869;DHT22;39100;53.480;6.158;2023-01-15T13:07:10;5.80;99.90
52869;DHT22;39100;53.480;6.158;2023-01-15T13:12:13;5.80;99.90
52869;DHT22;39100;53.480;6.158;2023-01-15T13:14:39;5.90;99.90
52869;DHT22;39100;53.480;6.158;2023-01-15T13:17:40;5.90;99.90
52869;DHT22;39100;53.480;6.158;2023-01-15T13:20:20;6.00;99.90
52869;DHT22;39100;53.480;6.158;2023-01-15T13:22:58;6.00;99.90
52869;DHT22;39100;53.480;6.158;2023-01-15T13:31:05;6.20;99.90
52869;DHT22;39100;53.480;6.158;2023-01-15T13:33:41;6.20;99.90
52869;DHT22;39100;53.480;6.158;2023-01-15T13:36:22;6.30;99.90
52869;DHT22;39100;53.480;6.158;2023-01-15T13:38:52;6.30;99.90
52869;DHT22;39100;53.480;6.158;2023-01-15T13:41:21;6.40;99.90
52869;DHT22;39100;53.480;6.158;2023-01-15T13:44:21;6.40;99.90
52869;DHT22;39100;53.480;6.158;2023-01-15T13:47:06;6.40;99.90
52869;DHT22;39100;53.480;6.158;2023-01-15T13:49:55;6.30;99.90
52869;DHT22;39100;53.480;6.158;2023-01-15T13:52:27;6.30;99.90
52869;DHT22;39100;53.480;6.158;2023-01-15T13:55:00;6.40;99.90
52869;DHT22;39100;53.480;6.158;2023-01-15T13:57:39;6.40;99.90
52869;DHT22;39100;53.480;6.158;2023-01-15T14:00:32;6.40;99.90
52869;DHT22;39100;53.480;6.158;2023-01-15T14:03:00;6.40;99.90
52869;DHT22;39100;53.480;6.158;2023-01-15T14:05:30;6.40;99.90
52869;DHT22;39100;53.480;6.158;2023-01-15T14:07:57;6.30;99.90
52869;DHT22;39100;53.480;6.158;2023-01-15T14:26:54;6.50;99.90
52869;DHT22;39100;53.480;6.158;2023-01-15T14:29:42;6.50;99.90
52869;DHT22;39100;53.480;6.158;2023-01-15T14:32:54;6.40;99.90
52869;DHT22;39100;53.480;6.158;2023-01-15T14:35:24;6.50;99.90
52869;DHT22;39100;53.480;6.158;2023-01-15T14:38:03;6.40;99.90
52869;DHT22;39100;53.480;6.158;2023-01-15T14:40:32;6.40;99.90
52869;DHT22;39100;53.480;6.158;2023-01-15T14:43:08;6.40;99.90
52869;DHT22;39100;53.480;6.158;2023-01-15T14:45:40;6.40;99.90
52869;DHT22;39100;53.480;6.158;2023-01-15T14:50:53;6.40;99.90
52869;DHT22;39100;53.480;6.158;2023-01-15T14:53:39;6.40;99.90
52869;DHT22;39100;53.480;6.158;2023-01-15T14:56:22;6.50;99.90
52869;DHT22;39100;53.480;6.158;2023-01-15T14:58:55;6.50;99.90
52869;DHT22;39100;53.480;6.158;2023-01-15T15:01:33;6.50;99.90
52869;DHT22;39100;53.480;6.158;2023-01-15T15:04:12;6.50;99.90
52869;DHT22;39100;53.480;6.158;2023-01-15T15:09:47;6.50;99.90
52869;DHT22;39100;53.480;6.158;2023-01-15T15:12:21;6.50;99.90
52869;DHT22;39100;53.480;6.158;2023-01-15T15:18:01;6.50;99.90
52869;DHT22;39100;53.480;6.158;2023-01-15T15:20:54;6.50;99.90
52869;DHT22;39100;53.480;6.158;2023-01-15T15:23:37;6.40;99.90
52869;DHT22;39100;53.480;6.158;2023-01-15T15:26:16;6.40;99.90
52869;DHT22;39100;53.480;6.158;2023-01-15T15:28:43;6.40;99.90
52869;DHT22;39100;53.480;6.158;2023-01-15T15:31:19;6.40;99.90
52869;DHT22;39100;53.480;6.158;2023-01-15T15:33:44;6.30;99.90
52869;DHT22;39100;53.480;6.158;2023-01-15T15:36:10;6.30;99.90
52869;DHT22;39100;53.480;6.158;2023-01-15T15:38:36;6.30;99.90
52869;DHT22;39100;53.480;6.158;2023-01-15T15:41:10;6.30;99.90
52869;DHT22;39100;53.480;6.158;2023-01-15T15:43:47;6.30;99.90
52869;DHT22;39100;53.480;6.158;2023-01-15T15:46:35;6.30;99.90
52869;DHT22;39100;53.480;6.158;2023-01-15T15:49:19;7.10;99.90
52869;DHT22;39100;53.480;6.158;2023-01-15T15:51:46;6.20;99.90
52869;DHT22;39100;53.480;6.158;2023-01-15T15:54:26;6.20;99.90
52869;DHT22;39100;53.480;6.158;2023-01-15T15:56:57;6.20;99.90
52869;DHT22;39100;53.480;6.158;2023-01-15T16:01:58;6.10;99.90
52869;DHT22;39100;53.480;6.158;2023-01-15T16:04:25;6.10;99.90
52869;DHT22;39100;53.480;6.158;2023-01-15T16:06:51;6.10;99.90
52869;DHT22;39100;53.480;6.158;2023-01-15T16:09:22;6.10;99.90
52869;DHT22;39100;53.480;6.158;2023-01-15T16:11:49;6.20;99.90
52869;DHT22;39100;53.480;6.158;2023-01-15T16:14:17;6.20;99.90
52869;DHT22;39100;53.480;6.158;2023-01-15T16:16:46;6.20;99.90
52869;DHT22;39100;53.480;6.158;2023-01-15T16:19:20;6.20;99.90
52869;DHT22;39100;53.480;6.158;2023-01-15T16:21:47;6.20;99.90
52869;DHT22;39100;53.480;6.158;2023-01-15T16:24:31;6.20;99.90
52869;DHT22;39100;53.480;6.158;2023-01-15T16:27:05;6.10;99.90
52869;DHT22;39100;53.480;6.158;2023-01-15T16:29:47;6.10;99.90
52869;DHT22;39100;53.480;6.158;2023-01-15T16:32:19;6.20;99.90
52869;DHT22;39100;53.480;6.158;2023-01-15T16:34:46;6.10;99.90
52869;DHT22;39100;53.480;6.158;2023-01-15T16:37:22;6.10;99.90
52869;DHT22;39100;53.480;6.158;2023-01-15T16:39:50;6.10;99.90
52869;DHT22;39100;53.480;6.158;2023-01-15T16:42:25;6.00;99.90
52869;DHT22;39100;53.480;6.158;2023-01-15T16:44:57;6.00;99.90
52869;DHT22;39100;53.480;6.158;2023-01-15T16:47:28;6.00;99.90
52869;DHT22;39100;53.480;6.158;2023-01-15T16:55:45;6.00;99.90
52869;DHT22;39100;53.480;6.158;2023-01-15T17:00:40;6.00;99.90
52869;DHT22;39100;53.480;6.158;2023-01-15T17:03:25;6.00;99.90
52869;DHT22;39100;53.480;6.158;2023-01-15T17:05:54;6.00;99.90
52869;DHT22;39100;53.480;6.158;2023-01-15T17:08:23;6.00;99.90
52869;DHT22;39100;53.480;6.158;2023-01-15T17:10:53;6.00;99.90
52869;DHT22;39100;53.480;6.158;2023-01-15T17:13:21;6.00;99.90
52869;DHT22;39100;53.480;6.158;2023-01-15T17:16:01;6.00;99.90
52869;DHT22;39100;53.480;6.158;2023-01-15T17:18:27;6.30;99.90
52869;DHT22;39100;53.480;6.158;2023-01-15T17:20:54;5.90;99.90
52869;DHT22;39100;53.480;6.158;2023-01-15T17:23:23;5.90;99.90
52869;DHT22;39100;53.480;6.158;2023-01-15T17:25:50;5.90;99.90
52869;DHT22;39100;53.480;6.158;2023-01-15T17:28:16;5.90;99.90
52869;DHT22;39100;53.480;6.158;2023-01-15T17:30:43;5.90;99.90
52869;DHT22;39100;53.480;6.158;2023-01-15T17:33:12;5.90;99.90
52869;DHT22;39100;53.480;6.158;2023-01-15T17:35:38;5.90;99.90
52869;DHT22;39100;53.480;6.158;2023-01-15T17:38:05;5.90;99.90
52869;DHT22;39100;53.480;6.158;2023-01-15T17:40:33;5.90;99.90
52869;DHT22;39100;53.480;6.158;2023-01-15T17:42:59;5.90;99.90
52869;DHT22;39100;53.480;6.158;2023-01-15T17:45:29;5.90;99.90
52869;DHT22;39100;53.480;6.158;2023-01-15T17:47:56;5.90;99.90
52869;DHT22;39100;53.480;6.158;2023-01-15T17:50:24;5.90;99.90
52869;DHT22;39100;53.480;6.158;2023-01-15T17:52:50;5.90;99.90
52869;DHT22;39100;53.480;6.158;2023-01-15T17:55:18;5.90;99.90
52869;DHT22;39100;53.480;6.158;2023-01-15T17:58:03;5.80;99.90
52869;DHT22;39100;53.480;6.158;2023-01-15T18:00:48;5.80;99.90
52869;DHT22;39100;53.480;6.158;2023-01-15T18:03:33;5.90;99.90
52869;DHT22;39100;53.480;6.158;2023-01-15T18:06:20;5.90;99.90